Time;durP1;ratioP1;P1;durP2;ratioP2;P2;SDS_P1;SDS_P2;PMS_P1;PMS_P2;Temp;Humidity;BMP_temperature;BMP_pressure;BME280_temperature;BME280_humidity;BME280_pressure;Samples;Min_cycle;Max_cycle;Signal;HPM_P1;HPM_P2
2022/10/07 00:02:08;;;;;;;8.63;2.80;;;;;;;10.48;100.00;102824.72;7374363;19;20058;-75
2022/10/07 00:04:43;;;;;;;10.43;3.37;;;;;;;10.51;100.00;102818.72;7372514;19;20014;-75
2022/10/07 00:07:14;;;;;;;13.20;3.35;;;;;;;10.48;100.00;102812.50;7367244;19;20078;-74
2022/10/07 00:09:44;;;;;;;18.08;3.08;;;;;;;10.53;100.00;102812.72;7372145;19;20015;-75
2022/10/07 00:12:14;;;;;;;10.55;2.95;;;;;;;10.51;100.00;102817.00;7375775;19;20106;-81
2022/10/07 00:14:44;;;;;;;14.02;3.47;;;;;;;10.55;100.00;102818.03;7373524;19;20016;-81
2022/10/07 00:17:16;;;;;;;13.98;3.40;;;;;;;10.49;100.00;102816.03;7375330;19;20479;-80
2022/10/07 00:19:46;;;;;;;14.57;2.92;;;;;;;10.47;100.00;102809.81;7377217;19;20018;-80
2022/10/07 00:22:17;;;;;;;14.63;3.47;;;;;;;10.44;100.00;102814.91;7376523;19;20014;-81
2022/10/07 00:24:47;;;;;;;30.00;3.95;;;;;;;10.41;100.00;102804.28;7375173;19;20014;-81
2022/10/07 00:27:17;;;;;;;11.48;2.72;;;;;;;10.45;100.00;102800.97;7376997;19;20015;-80
2022/10/07 00:29:47;;;;;;;12.38;3.17;;;;;;;10.48;100.00;102796.75;7374644;19;20014;-81
2022/10/07 00:32:20;;;;;;;12.32;3.47;;;;;;;10.48;100.00;102801.13;7376865;19;20092;-81
2022/10/07 00:34:49;;;;;;;19.08;3.92;;;;;;;10.50;100.00;102794.22;7378475;19;20478;-82
2022/10/07 00:37:19;;;;;;;14.90;3.17;;;;;;;10.50;100.00;102794.22;7374688;19;20010;-81
2022/10/07 00:39:49;;;;;;;11.35;2.97;;;;;;;10.50;100.00;102788.97;7375570;19;20006;-81
2022/10/07 00:42:19;;;;;;;14.50;3.58;;;;;;;10.47;100.00;102794.06;7375240;19;20463;-80
2022/10/07 00:44:49;;;;;;;12.15;3.20;;;;;;;10.44;100.00;102792.22;7375576;19;20010;-81
2022/10/07 00:47:26;;;;;;;12.77;3.38;;;;;;;10.38;100.00;102793.69;7374285;19;20018;-80
2022/10/07 00:49:59;;;;;;;15.13;3.55;;;;;;;10.42;100.00;102787.72;7374896;19;20141;-81
2022/10/07 00:52:32;;;;;;;14.93;3.88;;;;;;;10.36;100.00;102785.75;7373019;19;20838;-75
2022/10/07 00:55:05;;;;;;;15.60;3.13;;;;;;;10.35;100.00;102783.06;7375126;19;20010;-75
2022/10/07 00:57:36;;;;;;;15.00;3.58;;;;;;;10.37;100.00;102778.78;7373802;19;20013;-75
2022/10/07 01:00:08;;;;;;;13.27;3.42;;;;;;;10.34;100.00;102781.28;7378162;19;20011;-81
2022/10/07 01:02:41;;;;;;;10.35;2.78;;;;;;;10.33;100.00;102777.75;7375462;19;20050;-81
2022/10/07 01:05:13;;;;;;;18.90;4.63;;;;;;;10.38;100.00;102772.72;7377683;19;20463;-81
2022/10/07 01:07:43;;;;;;;10.25;3.92;;;;;;;10.35;100.00;102772.56;7378059;19;20160;-81
2022/10/07 01:10:17;;;;;;;9.50;3.05;;;;;;;10.37;100.00;102768.28;7377967;19;20003;-81
2022/10/07 01:12:56;;;;;;;;;;;;;;;10.33;100.00;102762.00;7380294;19;20546;-80
2022/10/07 01:15:36;;;;;;;14.77;2.95;;;;;;;10.37;100.00;102749.94;7375611;19;20296;-74
2022/10/07 01:18:16;;;;;;;14.65;3.85;;;;;;;10.36;100.00;102753.38;7369311;19;20007;-75
2022/10/07 01:20:54;;;;;;;11.95;3.15;;;;;;;10.33;100.00;102753.25;7374214;19;20010;-74
2022/10/07 01:23:43;;;;;;;11.63;3.33;;;;;;;10.27;100.00;102742.47;7369736;19;20010;-74
2022/10/07 01:26:32;;;;;;;13.57;3.30;;;;;;;10.27;100.00;102743.38;7371794;19;20011;-76
2022/10/07 01:29:07;;;;;;;11.80;3.13;;;;;;;10.22;100.00;102733.50;7373075;19;20007;-74
2022/10/07 01:31:41;;;;;;;15.15;3.38;;;;;;;10.20;100.00;102746.56;7372263;19;20014;-74
2022/10/07 01:34:13;;;;;;;17.67;3.47;;;;;;;10.24;100.00;102738.00;7370463;19;20013;-75
2022/10/07 01:36:46;;;;;;;14.95;3.15;;;;;;;10.18;100.00;102736.78;7371849;19;20011;-74
2022/10/07 01:39:20;;;;;;;18.52;3.22;;;;;;;10.12;100.00;102726.94;7370348;19;20094;-74
2022/10/07 01:41:54;;;;;;;9.35;3.65;;;;;;;10.06;100.00;102727.53;7371015;19;20842;-74
2022/10/07 01:44:25;;;;;;;13.85;3.10;;;;;;;9.98;100.00;102715.81;7373078;19;20014;-74
2022/10/07 01:46:55;;;;;;;12.95;3.55;;;;;;;9.94;100.00;102713.88;7374751;19;20005;-74
2022/10/07 01:49:25;;;;;;;15.32;3.30;;;;;;;9.97;100.00;102700.91;7372878;19;20099;-74
2022/10/07 01:52:10;;;;;;;11.30;3.42;;;;;;;10.01;100.00;102701.94;7375990;19;20013;-79
2022/10/07 01:54:51;;;;;;;12.60;3.65;;;;;;;10.05;100.00;102704.78;7376678;19;20011;-79
2022/10/07 01:57:34;;;;;;;8.35;4.20;;;;;;;10.07;100.00;102697.88;7372720;19;20026;-81
2022/10/07 02:00:13;;;;;;;13.20;2.78;;;;;;;10.08;100.00;102688.28;7372147;19;20025;-80
2022/10/07 02:03:03;;;;;;;15.95;3.50;;;;;;;10.19;100.00;102688.78;7372361;19;20011;-80
2022/10/07 02:05:43;;;;;;;19.15;4.05;;;;;;;10.14;100.00;102680.69;7374913;19;20013;-80
2022/10/07 02:08:27;;;;;;;11.57;3.58;;;;;;;10.18;100.00;102673.88;7374878;19;20417;-80
2022/10/07 02:11:11;;;;;;;15.52;3.58;;;;;;;10.17;100.00;102670.34;7371730;19;20010;-81
2022/10/07 02:13:54;;;;;;;19.15;3.42;;;;;;;10.23;100.00;102668.03;7375698;19;20007;-81
2022/10/07 02:16:32;;;;;;;14.45;3.53;;;;;;;10.26;100.00;102659.41;7371575;19;20028;-81
2022/10/07 02:19:06;;;;;;;12.25;3.40;;;;;;;10.24;100.00;102651.47;7373915;19;20014;-81
2022/10/07 02:21:37;;;;;;;11.57;3.70;;;;;;;10.23;100.00;102651.41;7373726;19;20021;-81
2022/10/07 02:24:12;;;;;;;17.17;3.72;;;;;;;10.25;100.00;102653.25;7374300;19;20114;-80
2022/10/07 02:26:45;;;;;;;16.23;3.55;;;;;;;10.26;100.00;102644.56;7375805;19;20038;-80
2022/10/07 02:29:20;;;;;;;10.60;3.65;;;;;;;10.30;100.00;102645.59;7373725;19;20018;-81
2022/10/07 02:31:51;;;;;;;12.60;3.90;;;;;;;10.22;100.00;102644.38;7381029;19;20011;-81
2022/10/07 02:34:25;;;;;;;14.65;3.35;;;;;;;10.23;100.00;102640.91;7382738;19;20014;-80
2022/10/07 02:36:59;;;;;;;15.38;4.05;;;;;;;10.25;100.00;102628.75;7381893;19;20007;-80
2022/10/07 02:39:29;;;;;;;14.73;3.75;;;;;;;10.21;100.00;102634.69;7376014;19;20021;-81
2022/10/07 02:42:05;;;;;;;20.75;4.00;;;;;;;10.25;100.00;102618.28;7377807;19;20480;-80
2022/10/07 02:44:45;;;;;;;9.57;3.30;;;;;;;10.23;100.00;102620.81;7377635;19;20022;-80
2022/10/07 02:47:19;;;;;;;13.30;4.25;;;;;;;10.23;100.00;102620.81;7381862;19;20478;-80
2022/10/07 02:49:52;;;;;;;21.35;4.15;;;;;;;10.22;100.00;102615.53;7379910;19;20479;-80
2022/10/07 02:52:25;;;;;;;20.10;4.25;;;;;;;10.24;100.00;102614.75;7378599;19;20475;-80
2022/10/07 02:54:58;;;;;;;14.07;3.83;;;;;;;10.24;100.00;102606.00;7382129;19;20003;-81
2022/10/07 02:57:35;;;;;;;18.05;4.15;;;;;;;10.23;100.00;102604.19;7383217;19;20010;-81
2022/10/07 03:00:09;;;;;;;21.95;4.63;;;;;;;10.24;100.00;102606.88;7379899;19;20018;-80
2022/10/07 03:02:44;;;;;;;13.10;4.03;;;;;;;10.19;100.00;102611.00;7379630;19;20017;-81
2022/10/07 03:05:18;;;;;;;;;;;;;;;10.23;100.00;102598.94;7380450;19;20007;-80
2022/10/07 03:07:49;;;;;;;11.95;3.50;;;;;;;10.20;100.00;102610.22;7383859;19;20287;-81
2022/10/07 03:10:19;;;;;;;18.58;4.18;;;;;;;10.14;100.00;102602.94;7381492;19;20038;-80
2022/10/07 03:12:49;;;;;;;14.48;3.50;;;;;;;10.13;100.00;102601.16;7383622;19;20007;-81
2022/10/07 03:15:21;;;;;;;10.52;3.45;;;;;;;10.10;100.00;102595.78;7381060;19;20014;-81
2022/10/07 03:17:51;;;;;;;26.42;4.68;;;;;;;10.12;100.00;102603.69;7379853;19;20198;-80
2022/10/07 03:20:21;;;;;;;14.70;3.90;;;;;;;10.13;100.00;102592.38;7377047;19;20018;-80
2022/10/07 03:22:51;;;;;;;18.95;4.60;;;;;;;10.13;100.00;102597.63;7378510;19;20089;-81
2022/10/07 03:25:20;;;;;;;15.38;4.10;;;;;;;10.09;100.00;102591.34;7379504;19;20026;-80
2022/10/07 03:27:50;;;;;;;11.93;4.47;;;;;;;10.11;100.00;102581.84;7378415;19;20014;-80
2022/10/07 03:30:23;;;;;;;14.82;3.90;;;;;;;10.15;100.00;102581.13;7375532;19;20022;-80
2022/10/07 03:32:53;;;;;;;13.82;4.38;;;;;;;10.12;100.00;102575.75;7375632;19;20026;-80
2022/10/07 03:35:23;;;;;;;14.13;5.00;;;;;;;10.11;100.00;102579.22;7374910;19;20018;-80
2022/10/07 03:37:53;;;;;;;14.77;4.68;;;;;;;10.09;100.00;102580.88;7377522;19;20010;-75
2022/10/07 03:40:22;;;;;;;14.80;4.28;;;;;;;10.13;100.00;102579.28;7376809;19;20026;-74
2022/10/07 03:42:52;;;;;;;15.93;4.35;;;;;;;10.14;100.00;102579.34;7373730;19;20441;-75
2022/10/07 03:45:25;;;;;;;16.65;4.80;;;;;;;10.08;100.00;102578.19;7373168;19;20040;-75
2022/10/07 03:47:54;;;;;;;12.60;3.97;;;;;;;10.05;100.00;102562.31;7372960;19;20447;-75
2022/10/07 03:50:24;;;;;;;13.38;4.32;;;;;;;10.09;100.00;102574.72;7373708;19;20014;-75
2022/10/07 03:52:55;;;;;;;13.88;4.05;;;;;;;10.05;100.00;102568.47;7370725;19;20227;-75
2022/10/07 03:55:25;;;;;;;15.65;4.28;;;;;;;10.07;100.00;102568.53;7376772;19;20017;-75
2022/10/07 03:57:57;;;;;;;23.50;4.45;;;;;;;10.12;100.00;102565.28;7373757;19;20011;-75
2022/10/07 04:00:31;;;;;;;14.32;5.25;;;;;;;10.12;100.00;102561.75;7375958;19;20463;-75
2022/10/07 04:03:01;;;;;;;18.50;4.97;;;;;;;10.08;100.00;102563.34;7375380;19;20011;-75
2022/10/07 04:05:32;;;;;;;16.75;4.40;;;;;;;10.02;100.00;102557.84;7376260;19;20017;-75
2022/10/07 04:08:03;;;;;;;19.30;4.38;;;;;;;10.02;100.00;102557.84;7376501;19;20026;-74
2022/10/07 04:10:33;;;;;;;15.02;5.40;;;;;;;9.98;100.00;102560.28;7370238;19;20006;-75
2022/10/07 04:13:03;;;;;;;20.10;4.70;;;;;;;10.03;100.00;102559.63;7372668;19;20014;-75
2022/10/07 04:15:37;;;;;;;13.65;5.05;;;;;;;10.10;100.00;102566.94;7372839;19;20015;-75
2022/10/07 04:18:07;;;;;;;20.00;4.57;;;;;;;10.03;100.00;102549.16;7376455;19;20032;-75
2022/10/07 04:20:40;;;;;;;11.20;3.65;;;;;;;10.03;100.00;102551.78;7372525;19;20082;-75
2022/10/07 04:23:09;;;;;;;15.27;5.00;;;;;;;10.03;100.00;102543.91;7373120;19;20539;-75
2022/10/07 04:25:44;;;;;;;13.43;4.15;;;;;;;10.10;100.00;102547.69;7374687;19;20058;-75
2022/10/07 04:28:19;;;;;;;17.45;6.28;;;;;;;10.01;100.00;102545.56;7372338;19;20098;-74
2022/10/07 04:30:52;;;;;;;16.15;4.57;;;;;;;10.00;100.00;102541.16;7371204;19;20010;-74
2022/10/07 04:33:24;;;;;;;14.23;3.92;;;;;;;10.08;100.00;102544.09;7374144;19;20010;-79
2022/10/07 04:35:53;;;;;;;19.05;5.00;;;;;;;10.01;100.00;102545.56;7374175;19;20540;-75
2022/10/07 04:38:23;;;;;;;13.43;4.30;;;;;;;10.05;100.00;102552.75;7375965;19;20034;-75
2022/10/07 04:40:56;;;;;;;16.48;3.75;;;;;;;9.99;100.00;102546.34;7374638;19;20010;-75
2022/10/07 04:43:32;;;;;;;22.98;4.50;;;;;;;10.00;100.00;102546.41;7373039;19;20443;-81
2022/10/07 04:46:07;;;;;;;14.70;4.10;;;;;;;10.01;100.00;102542.94;7373053;19;20003;-74
2022/10/07 04:48:37;;;;;;;13.30;3.80;;;;;;;10.04;100.00;102540.47;7370031;19;20014;-74
2022/10/07 04:51:09;;;;;;;18.88;4.43;;;;;;;10.05;100.00;102537.00;7372063;19;20009;-75
2022/10/07 04:53:39;;;;;;;12.20;3.65;;;;;;;10.02;100.00;102531.63;7371803;19;20484;-75
2022/10/07 04:56:09;;;;;;;14.02;3.70;;;;;;;10.05;100.00;102536.09;7375734;19;20010;-75
2022/10/07 04:58:39;;;;;;;17.10;4.97;;;;;;;10.02;100.00;102531.63;7374533;19;20486;-75
2022/10/07 05:01:13;;;;;;;16.40;3.78;;;;;;;10.00;100.00;102528.06;7377378;19;20007;-80
2022/10/07 05:03:42;;;;;;;;;;;;;;;9.99;100.00;102523.63;7375236;19;20044;-74
2022/10/07 05:06:12;;;;;;;9.65;3.47;;;;;;;10.00;100.00;102516.69;7372439;19;19951;-75
2022/10/07 05:08:44;;;;;;;11.05;3.83;;;;;;;10.05;100.00;102521.28;7376035;19;20172;-75
2022/10/07 05:11:13;;;;;;;19.25;4.53;;;;;;;10.05;100.00;102520.38;7375884;19;20574;-75
2022/10/07 05:13:43;;;;;;;16.55;3.63;;;;;;;10.06;100.00;102524.78;7374687;19;20035;-76
2022/10/07 05:16:16;;;;;;;23.35;4.25;;;;;;;10.05;100.00;102512.53;7374116;19;20015;-75
2022/10/07 05:18:46;;;;;;;11.90;3.38;;;;;;;10.09;100.00;102517.97;7375496;19;20070;-75
2022/10/07 05:21:15;;;;;;;16.27;4.03;;;;;;;10.14;100.00;102515.53;7376538;19;20018;-74
2022/10/07 05:23:45;;;;;;;16.48;4.10;;;;;;;10.13;100.00;102519.88;7374219;19;20014;-80
2022/10/07 05:26:15;;;;;;;15.30;4.40;;;;;;;10.13;100.00;102517.25;7374866;19;20006;-80
2022/10/07 05:28:47;;;;;;;16.20;4.57;;;;;;;10.14;100.00;102505.94;7372799;19;20010;-78
2022/10/07 05:31:19;;;;;;;14.73;5.25;;;;;;;10.09;100.00;102506.56;7371830;19;20015;-79
2022/10/07 05:33:49;;;;;;;12.73;3.60;;;;;;;10.06;100.00;102515.22;7374610;19;20044;-80
2022/10/07 05:36:20;;;;;;;11.68;4.22;;;;;;;10.04;100.00;102503.75;7371600;19;20025;-80
2022/10/07 05:38:49;;;;;;;16.40;4.22;;;;;;;10.02;100.00;102500.19;7371331;19;20025;-80
2022/10/07 05:41:20;;;;;;;11.15;3.72;;;;;;;10.00;100.00;102501.84;7372822;19;20015;-80
2022/10/07 05:43:50;;;;;;;17.20;4.45;;;;;;;10.06;100.00;102499.47;7372973;19;20003;-80
2022/10/07 05:46:22;;;;;;;13.63;3.80;;;;;;;10.04;100.00;102501.13;7372129;19;20007;-78
2022/10/07 05:48:54;;;;;;;18.27;4.20;;;;;;;10.07;100.00;102493.41;7372101;19;20017;-81
2022/10/07 05:51:25;;;;;;;13.75;3.95;;;;;;;10.02;100.00;102494.94;7369945;19;20015;-74
2022/10/07 05:53:56;;;;;;;12.43;4.15;;;;;;;10.04;100.00;102481.91;7365801;19;20018;-79
2022/10/07 05:56:25;;;;;;;13.05;3.65;;;;;;;10.06;100.00;102481.13;7371732;19;20031;-79
2022/10/07 05:58:56;;;;;;;14.25;4.03;;;;;;;10.22;100.00;102477.44;7369530;19;20442;-79
2022/10/07 06:01:28;;;;;;;15.38;4.25;;;;;;;10.20;100.00;102478.22;7369727;19;20013;-80
2022/10/07 06:03:59;;;;;;;13.07;3.72;;;;;;;10.19;100.00;102490.41;7368153;19;20010;-78
2022/10/07 06:06:29;;;;;;;17.77;4.35;;;;;;;10.22;100.00;102480.06;7378124;19;20386;-79
2022/10/07 06:13:06;;;;;;;17.98;4.43;;;;;;;10.24;100.00;102485.38;7377625;19;20014;-79
2022/10/07 06:14:35;;;;;;;11.82;3.65;;;;;;;10.28;100.00;102482.03;7377577;19;20011;-74
2022/10/07 06:17:08;;;;;;;13.20;3.75;;;;;;;10.31;100.00;102482.16;7375426;19;20434;-74
2022/10/07 06:19:38;;;;;;;13.53;3.87;;;;;;;10.33;100.00;102478.78;7380780;19;20015;-74
2022/10/07 06:22:08;;;;;;;9.68;3.30;;;;;;;10.32;100.00;102483.97;7377757;19;20090;-73
2022/10/07 06:24:39;;;;;;;13.30;4.28;;;;;;;10.30;100.00;102477.75;7380162;19;20010;-73
2022/10/07 06:27:09;;;;;;;14.48;3.78;;;;;;;10.36;100.00;102483.25;7374771;19;20022;-73
2022/10/07 06:29:39;;;;;;;9.55;3.75;;;;;;;10.38;100.00;102484.19;7374231;19;19998;-73
2022/10/07 06:32:12;;;;;;;17.92;4.07;;;;;;;10.34;100.00;102474.41;7374271;19;20018;-72
2022/10/07 06:34:43;;;;;;;18.77;4.50;;;;;;;10.35;100.00;102474.47;7377693;19;20010;-72
2022/10/07 06:37:13;;;;;;;15.90;3.95;;;;;;;10.37;100.00;102477.16;7377487;19;20011;-73
2022/10/07 06:39:43;;;;;;;13.13;3.80;;;;;;;10.41;100.00;102476.44;7377961;19;20014;-73
2022/10/07 06:42:13;;;;;;;15.57;3.90;;;;;;;10.39;100.00;102475.50;7375457;19;20018;-73
2022/10/07 06:44:42;;;;;;;13.23;3.90;;;;;;;10.37;100.00;102483.31;7374020;19;20085;-72
2022/10/07 06:47:15;;;;;;;17.77;3.72;;;;;;;10.41;100.00;102468.56;7373496;19;20006;-73
2022/10/07 06:49:44;;;;;;;14.07;4.88;;;;;;;10.44;100.00;102481.78;7376095;19;20015;-74
2022/10/07 06:52:14;;;;;;;15.18;4.65;;;;;;;10.47;100.00;102474.94;7370402;19;20051;-75
2022/10/07 06:54:44;;;;;;;17.80;4.30;;;;;;;10.51;100.00;102481.19;7376902;19;20030;-79
2022/10/07 06:57:13;;;;;;;20.15;6.93;;;;;;;10.50;100.00;102476.78;7374066;19;20021;-78
2022/10/07 07:00:04;;;;;;;17.85;6.32;;;;;;;10.65;100.00;102484.38;7370959;19;20800;-78
2022/10/07 07:02:37;;;;;;;19.38;5.13;;;;;;;10.68;100.00;102479.25;7369772;19;20015;-77
2022/10/07 07:05:08;;;;;;;15.15;5.07;;;;;;;10.69;100.00;102481.94;7371163;19;20203;-77
2022/10/07 07:07:38;;;;;;;16.85;4.70;;;;;;;10.70;100.00;102477.56;7371596;19;20010;-77
2022/10/07 07:10:10;;;;;;;11.73;4.03;;;;;;;10.75;100.00;102490.03;7372348;19;20011;-77
2022/10/07 07:12:40;;;;;;;19.52;4.38;;;;;;;10.78;100.00;102486.63;7370524;19;20014;-77
2022/10/07 07:15:11;;;;;;;21.83;4.50;;;;;;;10.80;100.00;102484.97;7371929;19;20015;-77
2022/10/07 07:17:43;;;;;;;19.70;4.65;;;;;;;10.90;100.00;102486.22;7368160;19;20025;-78
2022/10/07 07:20:14;;;;;;;11.98;3.85;;;;;;;10.91;100.00;102485.38;7369546;19;21090;-77
2022/10/07 07:22:44;;;;;;;14.27;4.13;;;;;;;10.99;100.00;102478.69;7368133;19;20017;-77
2022/10/07 07:25:14;;;;;;;16.85;4.18;;;;;;;11.01;100.00;102480.53;7371882;19;20010;-76
2022/10/07 07:27:45;;;;;;;17.00;4.63;;;;;;;11.06;100.00;102481.59;7366566;19;20011;-77
2022/10/07 07:30:20;;;;;;;13.30;4.57;;;;;;;11.12;100.00;102480.94;7371715;19;20006;-77
2022/10/07 07:32:54;;;;;;;19.48;5.53;;;;;;;11.19;100.00;102469.81;7366373;19;20077;-77
2022/10/07 07:35:24;;;;;;;17.35;5.47;;;;;;;11.22;100.00;102472.56;7367967;19;20010;-77
2022/10/07 07:37:54;;;;;;;13.30;4.13;;;;;;;11.28;100.00;102469.25;7370305;19;20014;-77
2022/10/07 07:40:24;;;;;;;16.05;6.30;;;;;;;11.38;100.00;102466.13;7370473;19;20025;-78
2022/10/07 07:42:54;;;;;;;14.68;3.75;;;;;;;11.48;100.00;102461.22;7367841;19;20082;-78
2022/10/07 07:45:25;;;;;;;15.30;4.38;;;;;;;11.57;100.00;102472.88;7368231;19;20074;-78
2022/10/07 07:47:57;;;;;;;18.30;4.93;;;;;;;11.69;100.00;102468.97;7365889;19;20079;-72
2022/10/07 07:50:28;;;;;;;21.43;5.83;;;;;;;11.78;100.00;102465.78;7365588;19;20487;-72
2022/10/07 07:52:59;;;;;;;11.85;4.20;;;;;;;11.91;100.00;102475.88;7361676;19;20969;-73
2022/10/07 07:55:28;;;;;;;18.25;4.45;;;;;;;12.07;100.00;102467.66;7367412;19;20018;-79
2022/10/07 07:57:59;;;;;;;14.90;4.30;;;;;;;12.20;100.00;102468.94;7367878;19;20007;-78
2022/10/07 08:00:29;;;;;;;15.10;4.38;;;;;;;12.35;100.00;102460.66;7368690;19;20010;-76
2022/10/07 08:03:01;;;;;;;16.20;5.53;;;;;;;12.57;100.00;102467.47;7371930;19;20006;-76
2022/10/07 08:05:32;;;;;;;12.48;5.20;;;;;;;12.75;100.00;102461.00;7368830;19;20018;-78
2022/10/07 08:08:02;;;;;;;13.20;4.07;;;;;;;12.85;100.00;102463.91;7366447;19;20014;-76
2022/10/07 08:10:32;;;;;;;15.82;4.10;;;;;;;12.78;100.00;102476.91;7371100;19;20692;-76
2022/10/07 08:13:01;;;;;;;18.23;4.57;;;;;;;12.67;100.00;102472.16;7362904;19;20044;-76
2022/10/07 08:15:31;;;;;;;14.77;3.97;;;;;;;12.69;100.00;102466.09;7368457;19;20010;-76
2022/10/07 08:18:04;;;;;;;12.07;3.95;;;;;;;12.72;100.00;102462.66;7365416;19;20300;-77
2022/10/07 08:20:34;;;;;;;18.50;4.45;;;;;;;12.68;100.00;102458.16;7364181;19;20007;-76
2022/10/07 08:23:05;;;;;;;16.75;4.10;;;;;;;12.75;100.00;102462.75;7370064;19;20021;-77
2022/10/07 08:25:34;;;;;;;17.75;4.95;;;;;;;12.75;100.00;102453.13;7366736;19;20259;-77
2022/10/07 08:28:04;;;;;;;15.35;4.53;;;;;;;12.79;100.00;102446.22;7362113;19;20069;-77
2022/10/07 08:30:34;;;;;;;14.07;3.90;;;;;;;12.82;100.00;102450.66;7365648;19;20038;-77
2022/10/07 08:33:07;;;;;;;14.27;4.07;;;;;;;12.93;100.00;102443.97;7363896;19;20023;-72
2022/10/07 08:35:36;;;;;;;11.85;3.75;;;;;;;12.96;100.00;102447.59;7364703;19;20018;-72
2022/10/07 08:38:06;;;;;;;14.27;4.05;;;;;;;12.95;100.00;102432.63;7361630;19;20014;-72
2022/10/07 08:40:48;;;;;;;14.35;4.18;;;;;;;13.06;100.00;102440.84;7366514;19;20474;-71
2022/10/07 08:43:20;;;;;;;12.45;3.70;;;;;;;13.07;100.00;102442.63;7363902;19;20010;-72
2022/10/07 08:45:50;;;;;;;10.30;3.95;;;;;;;13.01;100.00;102435.44;7369156;19;20014;-72
2022/10/07 08:48:29;;;;;;;18.75;4.18;;;;;;;13.08;100.00;102426.88;7362779;19;20014;-72
2022/10/07 08:51:05;;;;;;;21.48;5.75;;;;;;;13.15;100.00;102425.31;7363686;19;20081;-72
2022/10/07 08:53:38;;;;;;;17.50;4.43;;;;;;;13.17;100.00;102414.84;7357142;19;20791;-72
2022/10/07 08:56:14;;;;;;;17.73;5.33;;;;;;;13.21;100.00;102420.25;7365234;19;20127;-71
2022/10/07 08:58:54;;;;;;;13.40;3.85;;;;;;;13.36;100.00;102425.94;7363355;19;20255;-72
2022/10/07 09:01:36;;;;;;;19.80;4.18;;;;;;;13.40;100.00;102422.53;7361768;19;20018;-71
2022/10/07 09:04:22;;;;;;;18.48;4.10;;;;;;;13.55;100.00;102435.19;7364625;19;20010;-71
2022/10/07 09:06:57;;;;;;;13.57;4.45;;;;;;;13.70;100.00;102418.88;7365633;19;20113;-71
2022/10/07 09:09:31;;;;;;;10.60;3.55;;;;;;;13.99;100.00;102416.97;7362114;19;20239;-71
2022/10/07 09:12:03;;;;;;;16.90;4.25;;;;;;;14.21;100.00;102418.38;7363766;19;20014;-72
2022/10/07 09:14:38;;;;;;;17.85;4.30;;;;;;;14.42;100.00;102416.25;7365298;19;20022;-72
2022/10/07 09:17:14;;;;;;;15.98;3.83;;;;;;;14.70;100.00;102418.63;7363715;19;20379;-72
2022/10/07 09:19:51;;;;;;;10.98;4.30;;;;;;;14.73;100.00;102408.13;7362042;19;20010;-75
2022/10/07 09:22:22;;;;;;;11.55;3.63;;;;;;;14.89;100.00;102408.44;7362287;19;21325;-76
2022/10/07 09:25:01;;;;;;;13.82;3.80;;;;;;;15.05;100.00;102410.53;7361339;19;20010;-75
2022/10/07 09:27:32;;;;;;;13.30;3.60;;;;;;;15.10;100.00;102413.25;7359933;19;20562;-75
2022/10/07 09:30:02;;;;;;;12.10;3.30;;;;;;;15.09;100.00;102409.72;7362867;19;20018;-75
2022/10/07 09:32:32;;;;;;;19.13;3.95;;;;;;;15.09;100.00;102408.84;7364653;19;20014;-75
2022/10/07 09:35:04;;;;;;;16.33;4.32;;;;;;;15.09;100.00;102406.19;7365460;19;20010;-76
2022/10/07 09:37:34;;;;;;;11.70;3.42;;;;;;;15.15;100.00;102412.50;7361221;19;20010;-75
2022/10/07 09:40:23;;;;;;;17.77;3.72;;;;;;;15.11;100.00;102408.00;7366020;19;20019;-76
2022/10/07 09:42:52;;;;;;;11.93;3.47;;;;;;;15.19;100.00;102413.44;7369782;19;20017;-76
2022/10/07 09:45:27;;;;;;;21.80;4.35;;;;;;;15.10;100.00;102403.59;7364754;19;20021;-75
2022/10/07 09:47:59;;;;;;;14.05;4.60;;;;;;;15.14;100.00;102393.97;7369022;19;20026;-72
2022/10/07 09:50:37;;;;;;;13.43;3.50;;;;;;;15.05;100.00;102392.94;7371202;19;20018;-73
2022/10/07 09:53:08;;;;;;;20.45;3.72;;;;;;;15.12;100.00;102387.75;7371102;19;20282;-72
2022/10/07 09:55:43;;;;;;;17.27;3.60;;;;;;;15.22;100.00;102380.03;7371593;19;21298;-72
2022/10/07 09:58:20;;;;;;;18.30;4.03;;;;;;;15.11;100.00;102381.59;7372019;19;20559;-72
2022/10/07 10:00:52;;;;;;;12.43;3.20;;;;;;;15.17;100.00;102378.16;7375954;19;20726;-72
2022/10/07 10:03:30;;;;;;;12.40;3.17;;;;;;;15.11;100.00;102378.94;7377854;19;20010;-75
2022/10/07 10:06:04;;;;;;;14.23;3.63;;;;;;;15.18;100.00;102370.28;7379620;19;20041;-75
2022/10/07 10:08:36;;;;;;;11.38;2.95;;;;;;;15.30;100.00;102364.31;7377791;19;20011;-75
2022/10/07 10:11:08;;;;;;;13.63;3.45;;;;;;;15.36;100.00;102367.06;7379380;19;20018;-75
2022/10/07 10:13:41;;;;;;;11.63;3.15;;;;;;;15.97;100.00;102358.41;7376971;19;20485;-75
2022/10/07 10:16:33;;;;;;;13.02;2.97;;;;;;;16.15;100.00;102354.25;7378616;19;20668;-75
2022/10/07 10:19:04;;;;;;;11.40;3.15;;;;;;;15.93;100.00;102347.75;7376817;19;20069;-72
2022/10/07 10:21:41;;;;;;;13.70;3.95;;;;;;;15.85;100.00;102346.75;7379270;19;20011;-72
2022/10/07 10:24:15;;;;;;;16.33;3.60;;;;;;;15.65;100.00;102341.13;7378805;19;20393;-75
2022/10/07 10:26:56;;;;;;;;;;;;;;;15.87;100.00;102343.25;7381080;19;20037;-76
2022/10/07 10:29:39;;;;;;;13.70;3.38;;;;;;;15.98;100.00;102332.81;7378721;19;19942;-75
2022/10/07 10:32:29;;;;;;;13.90;3.90;;;;;;;15.93;100.00;102337.16;7378347;19;20018;-72
2022/10/07 10:35:06;;;;;;;12.18;3.30;;;;;;;15.85;100.00;102338.81;7374393;19;20014;-72
2022/10/07 10:37:57;;;;;;;14.43;3.15;;;;;;;15.90;100.00;102329.19;7379330;19;20022;-72
2022/10/07 10:40:34;;;;;;;10.63;2.53;;;;;;;15.93;100.00;102331.88;7377847;19;20014;-72
2022/10/07 10:43:19;;;;;;;11.07;3.40;;;;;;;15.88;100.00;102328.25;7379772;19;20037;-72
2022/10/07 10:46:03;;;;;;;10.65;3.15;;;;;;;15.91;100.00;102328.31;7377692;19;20015;-72
2022/10/07 10:48:45;;;;;;;11.57;2.80;;;;;;;15.94;100.00;102329.25;7379684;19;20502;-76
2022/10/07 10:51:31;;;;;;;7.72;2.80;;;;;;;15.99;100.00;102316.09;7376714;19;20014;-72
2022/10/07 10:54:16;;;;;;;14.45;3.05;;;;;;;16.01;100.00;102322.28;7375398;19;20011;-75
2022/10/07 10:56:52;;;;;;;12.63;3.15;;;;;;;16.31;100.00;102314.78;7374155;19;20248;-75
2022/10/07 10:59:43;;;;;;;13.07;2.50;;;;;;;16.38;100.00;102310.44;7376010;19;20037;-75
2022/10/07 11:02:29;;;;;;;12.95;3.30;;;;;;;16.30;100.00;102299.75;7367973;19;20014;-76
2022/10/07 11:05:04;;;;;;;10.25;3.20;;;;;;;16.25;100.00;102304.09;7375078;19;20289;-76
2022/10/07 11:07:38;;;;;;;11.80;3.58;;;;;;;16.32;100.00;102305.06;7375156;19;20014;-76
2022/10/07 11:10:20;;;;;;;6.95;2.60;;;;;;;16.54;100.00;102301.81;7376538;19;20022;-75
2022/10/07 11:12:55;;;;;;;12.30;3.55;;;;;;;16.43;100.00;102298.16;7371986;19;20015;-76
2022/10/07 11:15:29;;;;;;;11.70;2.65;;;;;;;16.51;100.00;102293.84;7371088;19;20037;-76
2022/10/07 11:18:05;;;;;;;8.25;2.75;;;;;;;16.37;100.00;102292.78;7371787;19;20019;-72
2022/10/07 11:20:38;;;;;;;13.32;2.97;;;;;;;16.37;100.00;102298.06;7372855;19;20923;-76
2022/10/07 11:23:22;;;;;;;13.65;3.17;;;;;;;16.27;100.00;102296.19;7371469;19;20267;-77
2022/10/07 11:25:59;;;;;;;14.43;3.70;;;;;;;16.30;100.00;102290.94;7370310;19;20018;-74
2022/10/07 11:28:30;;;;;;;11.80;3.38;;;;;;;16.44;100.00;102281.41;7368982;19;20510;-73
2022/10/07 11:31:08;;;;;;;14.27;3.42;;;;;;;16.64;100.00;102277.22;7371223;19;20022;-72
2022/10/07 11:33:45;;;;;;;15.38;3.28;;;;;;;16.56;100.00;102273.59;7369609;19;20018;-81
2022/10/07 11:36:19;;;;;;;12.68;2.95;;;;;;;16.45;100.00;102279.63;7367745;19;20034;-81
2022/10/07 11:38:51;;;;;;;12.50;3.10;;;;;;;16.26;100.00;102274.13;7369120;19;20019;-81
2022/10/07 11:41:31;;;;;;;13.07;3.23;;;;;;;16.31;100.00;102264.47;7370800;19;20499;-81
2022/10/07 11:44:08;;;;;;;8.93;3.30;;;;;;;16.44;100.00;102259.31;7370370;19;20017;-81